KDUC/DUC METAR and TAF weather

Enter ICAO airport designator
Station Type Date Time Source
KDUC METAR 2019/07/17 12:55 UTC NOAA

KDUC 171255Z AUTO 16008KT 10SM CLR 25/22 A3001 RMK AO2 T02540218


Station Type Date Time Source
KDUC Decoded METAR 2019/07/17 12:55 UTC NOAA

Duncan, Halliburton Field Airport, OK, United States (KDUC) 34-28-15N 097-57-36W
Jul 17, 2019 - 08:55 AM EDT / 2019.07.17 1255 UTC
Wind: from the SSE (160 degrees) at 9 MPH (8 KT):0
Visibility: 10 mile(s):0
Sky conditions: clear
Temperature: 77.7 F (25.4 C)
Dew Point: 71.2 F (21.8 C)
Relative Humidity: 80%
Pressure (altimeter): 30.01 in. Hg (1016 hPa)
ob: KDUC 171255Z AUTO 16008KT 10SM CLR 25/22 A3001 RMK AO2 T02540218
cycle: 13

Station Type Date Time Source
KDUC TAF UTC NOAA

Error!

Example: see airport list